createdAt,value
2023-04-05T00:24:08.303Z,4.30
2023-04-05T00:26:36.441Z,5.10
2023-04-05T00:29:04.925Z,5.70
2023-04-05T00:31:33.118Z,4.60
2023-04-05T00:34:01.378Z,5.40
2023-04-05T00:36:30.249Z,5.70
2023-04-05T00:38:58.218Z,6.30
2023-04-05T00:41:26.305Z,5.40
2023-04-05T00:43:54.406Z,8.10
2023-04-05T00:46:22.783Z,12.30
2023-04-05T00:48:51.080Z,7.30
2023-04-05T00:51:20.534Z,5.40
2023-04-05T00:56:22.082Z,4.90
2023-04-05T00:58:52.319Z,5.70
2023-04-05T01:01:22.331Z,4.50
2023-04-05T01:03:54.084Z,5.50
2023-04-05T01:06:49.710Z,5.30
2023-04-05T01:10:05.668Z,5.60
2023-04-05T01:12:34.081Z,5.40
2023-04-05T01:15:05.068Z,6.00
2023-04-05T01:17:37.066Z,5.50
2023-04-05T01:20:10.600Z,5.20
2023-04-05T01:22:52.147Z,5.70
2023-04-05T01:25:42.597Z,5.40
2023-04-05T01:28:19.884Z,5.40
2023-04-05T01:30:53.183Z,5.20
2023-04-05T01:33:24.938Z,5.20
2023-04-05T01:36:09.173Z,4.70
2023-04-05T01:38:39.499Z,5.40
2023-04-05T01:41:07.559Z,4.20
2023-04-05T01:43:37.288Z,4.70
2023-04-05T01:46:05.788Z,5.00
2023-04-05T01:48:33.908Z,5.10
2023-04-05T01:51:02.807Z,4.70
2023-04-05T01:53:30.992Z,5.20
2023-04-05T01:56:02.472Z,5.10
2023-04-05T01:58:30.638Z,5.10
2023-04-05T02:00:59.826Z,4.80
2023-04-05T02:03:29.717Z,4.80
2023-04-05T02:05:59.803Z,4.60
2023-04-05T02:08:32.317Z,5.40
2023-04-05T02:11:00.583Z,5.20
2023-04-05T02:13:32.667Z,4.70
2023-04-05T02:16:00.886Z,5.70
2023-04-05T02:18:31.517Z,5.50
2023-04-05T02:21:08.374Z,5.00
2023-04-05T02:23:38.173Z,4.90
2023-04-05T02:26:06.460Z,5.00
2023-04-05T02:28:36.356Z,5.30
2023-04-05T02:31:10.472Z,5.30
2023-04-05T02:33:39.289Z,5.60
2023-04-05T02:36:09.495Z,5.70
2023-04-05T02:38:38.061Z,5.90
2023-04-05T02:41:11.811Z,5.60
2023-04-05T02:43:39.844Z,5.70
2023-04-05T02:46:07.930Z,6.00
2023-04-05T02:48:40.795Z,5.50
2023-04-05T02:51:09.456Z,5.70
2023-04-05T02:53:39.347Z,6.50
2023-04-05T02:56:09.530Z,6.10
2023-04-05T02:58:43.764Z,5.80
2023-04-05T03:01:12.949Z,6.20
2023-04-05T03:03:41.516Z,5.70
2023-04-05T03:06:13.591Z,6.40
2023-04-05T03:08:49.539Z,6.00
2023-04-05T03:11:25.596Z,6.20
2023-04-05T03:13:57.561Z,5.70
2023-04-05T03:16:47.321Z,5.40
2023-04-05T03:19:27.372Z,5.70
2023-04-05T03:21:59.567Z,6.00
2023-04-05T03:24:32.015Z,5.70
2023-04-05T03:27:02.689Z,6.00
2023-04-05T03:29:32.585Z,6.40
2023-04-05T03:32:01.869Z,6.40
2023-04-05T03:34:30.153Z,6.60
2023-04-05T03:37:02.347Z,6.80
2023-04-05T03:39:40.376Z,6.80
2023-04-05T03:42:09.019Z,6.20
2023-04-05T03:44:38.535Z,6.70
2023-04-05T03:47:08.146Z,6.70
2023-04-05T03:49:36.826Z,6.30
2023-04-05T03:52:05.007Z,6.50
2023-04-05T03:54:33.549Z,6.40
2023-04-05T03:57:02.452Z,6.40
2023-04-05T03:59:31.335Z,6.70
2023-04-05T04:02:00.292Z,6.30
2023-04-05T04:04:29.918Z,6.50
2023-04-05T04:06:58.285Z,6.90
2023-04-05T04:09:29.915Z,6.80
2023-04-05T04:12:01.346Z,6.60
2023-04-05T04:14:34.068Z,6.90
2023-04-05T04:17:34.717Z,6.00
2023-04-05T04:20:26.572Z,7.10
2023-04-05T04:23:30.744Z,6.30
2023-04-05T04:26:37.594Z,6.70
2023-04-05T04:29:31.625Z,6.90
2023-04-05T04:32:27.000Z,6.30
2023-04-05T04:35:14.843Z,6.70
2023-04-05T04:38:05.137Z,6.30
2023-04-05T04:40:47.005Z,6.20
2023-04-05T04:43:44.172Z,6.50
2023-04-05T04:46:43.334Z,6.10
2023-04-05T04:49:18.625Z,6.10
2023-04-05T04:51:48.852Z,6.80
2023-04-05T04:54:21.008Z,6.80
2023-04-05T04:56:50.124Z,6.40
2023-04-05T04:59:18.447Z,6.90
2023-04-05T05:01:46.679Z,7.00
2023-04-05T05:04:14.785Z,7.80
2023-04-05T05:06:44.356Z,7.40
2023-04-05T05:09:12.514Z,6.90
2023-04-05T05:12:01.837Z,6.60
2023-04-05T05:14:30.691Z,6.30
2023-04-05T05:17:01.356Z,6.30
2023-04-05T05:19:32.086Z,6.60
2023-04-05T05:22:00.622Z,6.90
2023-04-05T05:24:29.001Z,6.70
2023-04-05T05:26:57.146Z,7.00
2023-04-05T05:29:25.732Z,6.70
2023-04-05T05:31:53.793Z,6.70
2023-04-05T05:34:22.585Z,6.70
2023-04-05T05:36:57.749Z,7.40
2023-04-05T05:39:25.961Z,7.20
2023-04-05T05:41:56.479Z,8.00
2023-04-05T05:44:24.742Z,7.30
2023-04-05T05:46:52.915Z,6.90
2023-04-05T05:49:22.067Z,6.80
2023-04-05T05:51:52.982Z,7.20
2023-04-05T05:54:21.302Z,7.50
2023-04-05T05:56:49.298Z,7.20
2023-04-05T05:59:18.045Z,7.50
2023-04-05T06:01:46.927Z,7.50
2023-04-05T06:04:15.301Z,7.30
2023-04-05T06:06:44.235Z,6.90
2023-04-05T06:09:12.303Z,7.50
2023-04-05T06:11:53.154Z,6.90
2023-04-05T06:14:25.225Z,6.30
2023-04-05T06:16:53.858Z,6.60
2023-04-05T06:19:22.740Z,6.80
2023-04-05T06:21:50.686Z,6.70
2023-04-05T06:24:18.780Z,7.30
2023-04-05T06:26:47.081Z,7.10
2023-04-05T06:29:15.656Z,7.00
2023-04-05T06:31:46.553Z,6.90
2023-04-05T06:34:14.856Z,7.00
2023-04-05T06:36:47.714Z,13.00
2023-04-05T06:39:16.798Z,9.80
2023-04-05T06:41:45.061Z,7.90
2023-04-05T06:44:13.487Z,9.60
2023-04-05T06:46:41.412Z,7.50
2023-04-05T06:49:10.054Z,7.60
2023-04-05T06:51:38.184Z,8.50
2023-04-05T06:54:08.741Z,7.60
2023-04-05T07:00:51.696Z,7.80
2023-04-05T07:03:26.266Z,6.30
2023-04-05T07:05:59.500Z,6.20
2023-04-05T07:08:31.567Z,8.90
2023-04-05T07:10:59.940Z,8.00
2023-04-05T07:13:28.015Z,6.70
2023-04-05T07:16:01.000Z,6.40
2023-04-05T07:18:30.239Z,6.00
2023-04-05T07:21:03.746Z,5.90
2023-04-05T07:23:34.741Z,6.20
2023-04-05T07:26:04.844Z,6.30
2023-04-05T07:28:33.965Z,6.70
2023-04-05T07:31:02.964Z,7.50
2023-04-05T07:33:31.531Z,10.30
2023-04-05T07:35:59.726Z,8.60
2023-04-05T07:38:29.804Z,11.80
2023-04-05T07:40:58.946Z,7.80
2023-04-05T07:43:27.051Z,6.90
2023-04-05T07:46:01.844Z,7.10
2023-04-05T07:48:30.919Z,6.10
2023-04-05T07:51:09.164Z,6.80
2023-04-05T07:53:37.999Z,6.30
2023-04-05T07:56:07.429Z,5.90
2023-04-05T07:58:35.425Z,6.70
2023-04-05T08:01:03.686Z,6.80
2023-04-05T08:03:35.256Z,5.80
2023-04-05T08:08:40.986Z,6.80
2023-04-05T08:11:13.161Z,7.20
2023-04-05T08:13:42.373Z,9.10
2023-04-05T08:16:11.453Z,6.90
2023-04-05T08:18:42.568Z,6.60
2023-04-05T08:21:11.182Z,6.20
2023-04-05T08:23:41.030Z,7.00
2023-04-05T08:26:09.177Z,5.90
2023-04-05T08:28:37.770Z,5.90
2023-04-05T08:31:06.241Z,6.30
2023-04-05T08:33:35.513Z,7.30
2023-04-05T08:36:08.117Z,6.60
2023-04-05T08:38:37.052Z,6.60
2023-04-05T08:41:26.376Z,6.40
2023-04-05T08:44:02.476Z,5.90
2023-04-05T08:46:32.185Z,5.70
2023-04-05T08:49:02.130Z,5.50
2023-04-05T08:51:30.389Z,5.90
2023-04-05T08:53:59.576Z,6.40
2023-04-05T08:56:37.105Z,6.50
2023-04-05T08:59:06.303Z,6.00
2023-04-05T09:01:38.770Z,7.20
2023-04-05T09:04:27.422Z,6.40
2023-04-05T09:06:56.826Z,6.30
2023-04-05T09:09:28.896Z,7.10
2023-04-05T09:11:58.193Z,7.00
2023-04-05T09:14:26.264Z,6.30
2023-04-05T09:16:54.522Z,6.50
2023-04-05T09:19:23.976Z,7.10
2023-04-05T09:22:02.839Z,6.70
2023-04-05T09:24:42.348Z,7.30
2023-04-05T09:27:14.085Z,6.70
2023-04-05T09:29:47.569Z,7.50
2023-04-05T09:32:18.387Z,6.60
2023-04-05T09:34:46.331Z,7.70
2023-04-05T09:37:22.377Z,8.10
2023-04-05T09:39:52.101Z,6.70
2023-04-05T09:42:23.336Z,7.30
2023-04-05T09:44:56.484Z,7.20
2023-04-05T09:47:25.935Z,7.50
2023-04-05T09:49:58.846Z,7.20
2023-04-05T09:52:34.283Z,7.60
2023-04-05T09:55:04.490Z,7.40
2023-04-05T09:57:39.779Z,7.80
2023-04-05T10:00:18.285Z,6.50
2023-04-05T10:02:48.006Z,6.80
2023-04-05T10:05:16.244Z,6.50
2023-04-05T10:07:45.439Z,5.80
2023-04-05T10:10:16.311Z,6.30
2023-04-05T10:12:45.787Z,5.60
2023-04-05T10:15:14.519Z,6.00
2023-04-05T10:17:51.618Z,6.00
2023-04-05T10:20:23.720Z,6.90
2023-04-05T10:22:52.258Z,6.40
2023-04-05T10:25:43.013Z,18.40
2023-04-05T10:28:35.352Z,6.30
2023-04-05T10:31:37.538Z,5.20
2023-04-05T10:34:08.279Z,5.20
2023-04-05T10:36:44.530Z,9.00
2023-04-05T10:39:16.005Z,4.50
2023-04-05T10:41:48.496Z,4.40
2023-04-05T10:44:25.853Z,4.20
2023-04-05T10:46:54.950Z,4.60
2023-04-05T10:49:37.851Z,4.20
2023-04-05T10:52:06.628Z,4.70
2023-04-05T10:54:36.770Z,5.60
2023-04-05T10:57:10.381Z,5.30
2023-04-05T10:59:44.791Z,5.00
2023-04-05T11:02:13.893Z,5.50
2023-04-05T11:04:43.002Z,5.10
2023-04-05T11:07:11.191Z,4.80
2023-04-05T11:09:40.397Z,4.50
2023-04-05T11:12:14.868Z,4.50
2023-04-05T11:14:44.673Z,4.70
2023-04-05T11:17:28.803Z,5.00
2023-04-05T11:20:04.776Z,4.80
2023-04-05T11:22:33.371Z,4.60
2023-04-05T11:25:03.384Z,4.40
2023-04-05T11:27:34.153Z,4.70
2023-04-05T11:30:03.024Z,4.60
2023-04-05T11:32:41.125Z,4.70
2023-04-05T11:35:18.208Z,5.00
2023-04-05T11:38:01.741Z,5.10
2023-04-05T11:40:31.569Z,5.00
2023-04-05T11:43:12.586Z,11.20
2023-04-05T11:45:42.181Z,11.80
2023-04-05T11:48:13.352Z,5.00
2023-04-05T11:50:47.608Z,3.30
2023-04-05T11:53:18.722Z,4.10
2023-04-05T11:55:51.372Z,4.20
2023-04-05T11:58:24.211Z,4.10
2023-04-05T12:01:02.897Z,4.10
2023-04-05T12:03:34.389Z,4.00
2023-04-05T12:06:04.501Z,4.40
2023-04-05T12:08:42.979Z,3.50
2023-04-05T12:11:15.796Z,3.90
2023-04-05T12:13:45.446Z,3.70
2023-04-05T12:16:13.527Z,3.90
2023-04-05T12:18:44.425Z,4.50
2023-04-05T12:21:13.106Z,4.20
2023-04-05T12:23:41.588Z,4.30
2023-04-05T12:26:09.959Z,4.40
2023-04-05T12:28:57.872Z,4.30
2023-04-05T12:31:45.704Z,4.50
2023-04-05T12:34:14.535Z,3.50
2023-04-05T12:36:46.202Z,3.00
2023-04-05T12:41:04.747Z,4.50
2023-04-05T12:43:43.145Z,4.30
2023-04-05T12:46:20.692Z,4.30
2023-04-05T12:48:53.479Z,4.40
2023-04-05T12:51:21.604Z,4.20
2023-04-05T12:53:49.589Z,4.40
2023-04-05T12:56:18.457Z,4.50
2023-04-05T12:58:51.219Z,4.70
2023-04-05T13:01:20.263Z,4.20
2023-04-05T13:03:50.059Z,11.70
2023-04-05T13:06:18.241Z,21.60
2023-04-05T13:08:46.815Z,6.90
2023-04-05T13:11:14.812Z,5.50
2023-04-05T13:13:45.521Z,5.00
2023-04-05T13:16:13.701Z,4.50
2023-04-05T13:18:42.269Z,4.30
2023-04-05T13:21:12.027Z,5.10
2023-04-05T13:23:41.870Z,4.70
2023-04-05T13:26:14.151Z,4.60
2023-04-05T13:28:42.454Z,4.40
2023-04-05T13:31:11.296Z,4.90
2023-04-05T13:33:41.324Z,4.50
2023-04-05T13:36:11.028Z,4.70
2023-04-05T13:41:08.417Z,4.90
2023-04-05T13:43:36.578Z,4.80
2023-04-05T13:46:05.493Z,4.90
2023-04-05T13:48:34.173Z,5.10
2023-04-05T13:51:06.459Z,4.90
2023-04-05T13:53:35.218Z,6.90
2023-04-05T13:56:03.498Z,6.30
2023-04-05T13:58:32.085Z,4.20
2023-04-05T14:01:00.614Z,4.50
2023-04-05T14:03:36.152Z,4.30
2023-04-05T14:06:04.475Z,4.00
2023-04-05T14:08:32.419Z,4.40
2023-04-05T14:11:01.423Z,4.40
2023-04-05T14:13:31.621Z,4.60
2023-04-05T14:15:59.640Z,5.40
2023-04-05T14:18:27.765Z,4.90
2023-04-05T14:20:58.988Z,4.20
2023-04-05T14:23:27.244Z,4.70
2023-04-05T14:25:55.612Z,4.10
2023-04-05T14:28:24.203Z,4.60
2023-04-05T14:30:54.831Z,4.30
2023-04-05T14:33:24.645Z,4.50
2023-04-05T14:35:53.473Z,4.10
2023-04-05T14:38:28.567Z,3.70
2023-04-05T14:40:57.058Z,4.40
2023-04-05T14:43:27.945Z,4.50
2023-04-05T14:45:56.092Z,4.10
2023-04-05T14:48:24.450Z,4.40
2023-04-05T14:50:54.635Z,4.10
2023-04-05T14:53:22.725Z,4.10
2023-04-05T14:55:52.085Z,4.60
2023-04-05T14:58:20.513Z,3.80
2023-04-05T15:00:52.396Z,4.30
2023-04-05T15:03:22.301Z,4.30
2023-04-05T15:05:50.826Z,4.60
2023-04-05T15:08:18.962Z,4.50
2023-04-05T15:10:47.074Z,4.50
2023-04-05T15:13:15.837Z,3.60
2023-04-05T15:15:44.012Z,4.10
2023-04-05T15:18:21.070Z,3.80
2023-04-05T15:20:49.445Z,4.20
2023-04-05T15:23:17.638Z,5.20
2023-04-05T15:25:46.205Z,4.00
2023-04-05T15:28:14.903Z,4.10
2023-04-05T15:30:45.914Z,4.10
2023-04-05T15:33:14.525Z,4.70
2023-04-05T15:35:43.385Z,4.10
2023-04-05T15:38:12.524Z,4.20
2023-04-05T15:40:41.142Z,5.60
2023-04-05T15:43:09.808Z,4.90
2023-04-05T15:45:38.298Z,4.50
2023-04-05T15:48:06.552Z,3.90
2023-04-05T15:50:35.027Z,4.10
2023-04-05T15:53:03.194Z,4.10
2023-04-05T15:55:31.465Z,3.90
2023-04-05T15:57:59.600Z,4.40
2023-04-05T16:00:28.518Z,4.60
2023-04-05T16:03:00.765Z,3.90
2023-04-05T16:05:29.795Z,3.90
2023-04-05T16:07:59.928Z,4.30
2023-04-05T16:10:28.188Z,4.40
2023-04-05T16:13:01.229Z,4.50
2023-04-05T16:15:30.527Z,4.60
2023-04-05T16:17:58.657Z,4.40
2023-04-05T16:20:28.542Z,3.70
2023-04-05T16:22:57.573Z,4.00
2023-04-05T16:25:25.584Z,4.00
2023-04-05T16:27:56.574Z,4.10
2023-04-05T16:30:24.759Z,4.10
2023-04-05T16:32:53.364Z,4.10
2023-04-05T16:35:21.811Z,4.00
2023-04-05T16:37:50.287Z,4.20
2023-04-05T16:40:18.678Z,4.50
2023-04-05T16:42:47.364Z,4.20
2023-04-05T16:45:15.677Z,4.30
2023-04-05T16:47:44.147Z,4.50
2023-04-05T16:50:12.443Z,4.20
2023-04-05T16:52:41.197Z,3.90
2023-04-05T16:55:09.980Z,4.40
2023-04-05T16:57:39.100Z,5.00
2023-04-05T17:00:08.182Z,4.50
2023-04-05T17:02:38.516Z,4.40
2023-04-05T17:05:08.617Z,4.70
2023-04-05T17:07:37.751Z,4.60
2023-04-05T17:10:07.406Z,4.20
2023-04-05T17:12:51.976Z,4.40
2023-04-05T17:15:20.034Z,4.20
2023-04-05T17:17:48.459Z,4.40
2023-04-05T17:20:16.908Z,4.80
2023-04-05T17:22:46.464Z,4.50
2023-04-05T17:25:14.713Z,4.70
2023-04-05T17:27:42.792Z,4.60
2023-04-05T17:30:11.802Z,5.50
2023-04-05T17:32:52.228Z,5.30
2023-04-05T17:35:20.754Z,6.10
2023-04-05T17:37:49.474Z,5.90
2023-04-05T17:40:18.705Z,5.70
2023-04-05T17:42:46.848Z,5.30
2023-04-05T17:45:14.954Z,5.70
2023-04-05T17:47:44.450Z,4.30
2023-04-05T17:50:12.713Z,4.50
2023-04-05T17:52:41.146Z,4.50
2023-04-05T17:55:09.989Z,5.10
2023-04-05T17:57:39.288Z,4.80
2023-04-05T18:00:08.790Z,4.70
2023-04-05T18:02:40.895Z,4.40
2023-04-05T18:05:10.597Z,4.60
2023-04-05T18:07:38.842Z,4.90
2023-04-05T18:10:08.246Z,4.80
2023-04-05T18:12:36.758Z,4.90
2023-04-05T18:15:05.445Z,5.00
2023-04-05T18:17:34.460Z,4.00
2023-04-05T18:20:02.875Z,5.00
2023-04-05T18:22:37.916Z,4.80
2023-04-05T18:25:08.667Z,4.30
2023-04-05T18:27:39.195Z,4.70
2023-04-05T18:30:08.337Z,4.90
2023-04-05T18:32:39.289Z,4.90
2023-04-05T18:35:09.139Z,5.40
2023-04-05T18:37:37.815Z,5.60
2023-04-05T18:40:06.920Z,5.20
2023-04-05T18:42:40.190Z,6.20
2023-04-05T18:45:09.097Z,5.70
2023-04-05T18:47:37.316Z,5.70
2023-04-05T18:50:10.069Z,6.10
2023-04-05T18:52:38.226Z,5.20
2023-04-05T18:55:07.247Z,5.10
2023-04-05T18:57:36.434Z,5.10
2023-04-05T19:00:05.457Z,5.80
2023-04-05T19:05:03.853Z,5.60
2023-04-05T19:07:33.094Z,5.80
2023-04-05T19:10:01.460Z,5.80
2023-04-05T19:12:29.604Z,6.30
2023-04-05T19:14:57.717Z,5.50
2023-04-05T19:17:25.798Z,6.00
2023-04-05T19:19:54.026Z,6.30
2023-04-05T19:22:23.028Z,5.80
2023-04-05T19:24:51.311Z,6.00
2023-04-05T19:27:22.935Z,5.80
2023-04-05T19:29:51.025Z,5.90
2023-04-05T19:32:19.173Z,6.30
2023-04-05T19:34:47.197Z,6.50
2023-04-05T19:37:16.048Z,6.50
2023-04-05T19:39:45.834Z,6.30
2023-04-05T19:44:57.832Z,6.00
2023-04-05T19:47:27.267Z,6.60
2023-04-05T19:50:00.529Z,6.60
2023-04-05T19:52:38.246Z,6.70
2023-04-05T19:55:28.724Z,7.00
2023-04-05T20:00:47.244Z,6.50
2023-04-05T20:03:32.299Z,6.60
2023-04-05T20:06:11.275Z,7.40
2023-04-05T20:08:41.320Z,7.00
2023-04-05T20:11:15.940Z,7.40
2023-04-05T20:13:50.827Z,7.50
2023-04-05T20:16:23.975Z,7.20
2023-04-05T20:18:53.032Z,7.50
2023-04-05T20:21:21.224Z,7.30
2023-04-05T20:23:49.371Z,7.20
2023-04-05T20:26:17.590Z,7.30
2023-04-05T20:28:56.865Z,7.40
2023-04-05T20:31:33.487Z,7.50
2023-04-05T20:34:15.040Z,6.90
2023-04-05T20:36:49.483Z,6.90
2023-04-05T20:39:18.663Z,6.80
2023-04-05T20:41:47.164Z,7.10
2023-04-05T20:44:15.917Z,7.30
2023-04-05T20:46:45.374Z,7.30
2023-04-05T20:49:14.115Z,7.30
2023-04-05T20:51:43.160Z,7.50
2023-04-05T20:54:11.888Z,7.30
2023-04-05T20:56:44.115Z,7.80
2023-04-05T20:59:12.320Z,7.80
2023-04-05T21:01:43.075Z,8.20
2023-04-05T21:04:12.162Z,8.60
2023-04-05T21:06:40.550Z,8.30
2023-04-05T21:09:09.433Z,7.80
2023-04-05T21:11:38.495Z,8.50
2023-04-05T21:14:08.529Z,8.10
2023-04-05T21:16:37.667Z,7.90
2023-04-05T21:19:06.621Z,8.00
2023-04-05T21:21:36.249Z,8.00
2023-04-05T21:24:04.873Z,8.70
2023-04-05T21:26:33.121Z,8.10
2023-04-05T21:29:03.843Z,8.30
2023-04-05T21:31:33.672Z,8.10
2023-04-05T21:34:01.971Z,9.20
2023-04-05T21:36:31.247Z,8.40
2023-04-05T21:38:59.499Z,8.10
2023-04-05T21:41:27.692Z,8.20
2023-04-05T21:43:56.733Z,8.50
2023-04-05T21:46:24.870Z,7.80
2023-04-05T21:48:53.027Z,7.60
2023-04-05T21:51:21.609Z,7.50
2023-04-05T21:53:49.839Z,7.60
2023-04-05T21:56:21.424Z,7.40
2023-04-05T21:58:49.659Z,7.00
2023-04-05T22:01:17.876Z,7.60
2023-04-05T22:03:47.395Z,7.80
2023-04-05T22:06:15.939Z,6.60
2023-04-05T22:08:44.158Z,7.40
2023-04-05T22:11:12.678Z,6.90
2023-04-05T22:13:42.447Z,6.90
2023-04-05T22:16:10.578Z,6.90
2023-04-05T22:18:38.726Z,6.60
2023-04-05T22:21:06.767Z,7.60
2023-04-05T22:23:35.159Z,7.60
2023-04-05T22:26:03.236Z,7.30
2023-04-05T22:28:32.009Z,6.80
2023-04-05T22:31:00.232Z,7.30
2023-04-05T22:33:29.520Z,7.00
2023-04-05T22:35:57.627Z,7.10
2023-04-05T22:38:27.398Z,6.70
2023-04-05T22:40:55.639Z,7.30
2023-04-05T22:43:24.203Z,7.20
2023-04-05T22:45:52.906Z,7.20
2023-04-05T22:48:21.385Z,6.80
2023-04-05T22:50:49.560Z,7.00
2023-04-05T22:53:17.856Z,7.00
2023-04-05T22:55:47.690Z,5.00
2023-04-05T22:58:16.707Z,7.10
2023-04-05T23:00:44.920Z,7.40
2023-04-05T23:03:15.309Z,6.90
2023-04-05T23:05:43.641Z,7.30
2023-04-05T23:08:11.680Z,7.60
2023-04-05T23:10:39.784Z,6.90
2023-04-05T23:13:08.240Z,6.80
2023-04-05T23:15:36.768Z,7.10
2023-04-05T23:18:08.307Z,6.80
2023-04-05T23:20:36.770Z,6.50
2023-04-05T23:23:05.454Z,7.00
2023-04-05T23:25:33.537Z,6.40
2023-04-05T23:28:01.531Z,6.80
2023-04-05T23:30:30.958Z,6.60
2023-04-05T23:33:01.376Z,7.40
2023-04-05T23:35:29.987Z,7.30
2023-04-05T23:37:58.511Z,7.10
2023-04-05T23:40:26.606Z,6.40
2023-04-05T23:42:55.623Z,6.50
2023-04-05T23:45:24.852Z,7.20
2023-04-05T23:47:58.879Z,7.10
2023-04-05T23:50:27.542Z,7.10
2023-04-05T23:52:55.590Z,6.40
2023-04-05T23:55:26.333Z,7.60
2023-04-05T23:57:57.914Z,7.40
